sensor_id;sensor_type;location;lat;lon;timestamp;P1;durP1;ratioP1;P2;durP2;ratioP2
44508;SDS011;30214;52.246;14.408;2023-07-28T00:00:23;3.05;;;2.10;;
44508;SDS011;30214;52.246;14.408;2023-07-28T00:02:50;5.22;;;2.60;;
44508;SDS011;30214;52.246;14.408;2023-07-28T00:05:17;5.97;;;2.38;;
44508;SDS011;30214;52.246;14.408;2023-07-28T00:07:44;5.43;;;2.30;;
44508;SDS011;30214;52.246;14.408;2023-07-28T00:10:11;3.25;;;2.22;;
44508;SDS011;30214;52.246;14.408;2023-07-28T00:12:39;6.32;;;2.40;;
44508;SDS011;30214;52.246;14.408;2023-07-28T00:15:06;2.85;;;1.80;;
44508;SDS011;30214;52.246;14.408;2023-07-28T00:17:33;5.05;;;1.98;;
44508;SDS011;30214;52.246;14.408;2023-07-28T00:20:00;2.90;;;1.98;;
44508;SDS011;30214;52.246;14.408;2023-07-28T00:22:27;6.15;;;2.00;;
44508;SDS011;30214;52.246;14.408;2023-07-28T00:24:54;4.93;;;2.00;;
44508;SDS011;30214;52.246;14.408;2023-07-28T00:27:21;2.97;;;1.73;;
44508;SDS011;30214;52.246;14.408;2023-07-28T00:29:50;3.28;;;1.60;;
44508;SDS011;30214;52.246;14.408;2023-07-28T00:32:17;3.35;;;1.98;;
44508;SDS011;30214;52.246;14.408;2023-07-28T00:34:44;3.05;;;1.70;;
44508;SDS011;30214;52.246;14.408;2023-07-28T00:37:11;3.00;;;1.67;;
44508;SDS011;30214;52.246;14.408;2023-07-28T00:39:39;2.50;;;1.50;;
44508;SDS011;30214;52.246;14.408;2023-07-28T00:42:06;4.55;;;1.45;;
44508;SDS011;30214;52.246;14.408;2023-07-28T00:44:34;5.28;;;1.52;;
44508;SDS011;30214;52.246;14.408;2023-07-28T00:47:03;2.80;;;1.40;;
44508;SDS011;30214;52.246;14.408;2023-07-28T00:49:30;3.05;;;1.50;;
44508;SDS011;30214;52.246;14.408;2023-07-28T00:51:58;7.63;;;1.70;;
44508;SDS011;30214;52.246;14.408;2023-07-28T00:54:26;3.55;;;1.80;;
44508;SDS011;30214;52.246;14.408;2023-07-28T00:56:53;4.55;;;1.70;;
44508;SDS011;30214;52.246;14.408;2023-07-28T00:59:19;2.60;;;1.40;;
44508;SDS011;30214;52.246;14.408;2023-07-28T01:01:47;2.92;;;1.45;;
44508;SDS011;30214;52.246;14.408;2023-07-28T01:04:16;4.47;;;1.25;;
44508;SDS011;30214;52.246;14.408;2023-07-28T01:06:45;2.42;;;1.23;;
44508;SDS011;30214;52.246;14.408;2023-07-28T01:09:16;4.03;;;1.10;;
44508;SDS011;30214;52.246;14.408;2023-07-28T01:11:53;2.97;;;1.25;;
44508;SDS011;30214;52.246;14.408;2023-07-28T01:14:20;2.43;;;1.40;;
44508;SDS011;30214;52.246;14.408;2023-07-28T01:16:47;2.20;;;1.30;;
44508;SDS011;30214;52.246;14.408;2023-07-28T01:19:16;2.20;;;1.40;;
44508;SDS011;30214;52.246;14.408;2023-07-28T01:21:45;2.55;;;1.42;;
44508;SDS011;30214;52.246;14.408;2023-07-28T01:24:20;4.47;;;1.42;;
44508;SDS011;30214;52.246;14.408;2023-07-28T01:26:57;2.30;;;1.85;;
44508;SDS011;30214;52.246;14.408;2023-07-28T01:29:24;3.95;;;1.67;;
44508;SDS011;30214;52.246;14.408;2023-07-28T01:31:51;2.78;;;1.40;;
44508;SDS011;30214;52.246;14.408;2023-07-28T01:34:19;3.35;;;1.42;;
44508;SDS011;30214;52.246;14.408;2023-07-28T01:36:46;8.27;;;1.67;;
44508;SDS011;30214;52.246;14.408;2023-07-28T01:39:13;3.92;;;1.60;;
44508;SDS011;30214;52.246;14.408;2023-07-28T01:41:40;3.88;;;1.50;;
44508;SDS011;30214;52.246;14.408;2023-07-28T01:44:10;4.97;;;1.58;;
44508;SDS011;30214;52.246;14.408;2023-07-28T01:46:37;2.92;;;1.52;;
44508;SDS011;30214;52.246;14.408;2023-07-28T01:49:05;2.45;;;1.58;;
44508;SDS011;30214;52.246;14.408;2023-07-28T01:51:32;3.97;;;1.40;;
44508;SDS011;30214;52.246;14.408;2023-07-28T01:53:59;4.28;;;1.40;;
44508;SDS011;30214;52.246;14.408;2023-07-28T01:56:26;3.15;;;1.45;;
44508;SDS011;30214;52.246;14.408;2023-07-28T01:58:52;2.35;;;1.48;;
44508;SDS011;30214;52.246;14.408;2023-07-28T02:01:21;6.32;;;1.50;;
44508;SDS011;30214;52.246;14.408;2023-07-28T02:03:48;2.55;;;1.40;;
44508;SDS011;30214;52.246;14.408;2023-07-28T02:06:15;3.63;;;1.35;;
44508;SDS011;30214;52.246;14.408;2023-07-28T02:08:42;5.72;;;1.88;;
44508;SDS011;30214;52.246;14.408;2023-07-28T02:11:08;4.82;;;1.30;;
44508;SDS011;30214;52.246;14.408;2023-07-28T02:13:36;3.92;;;1.30;;
44508;SDS011;30214;52.246;14.408;2023-07-28T02:16:03;4.25;;;1.40;;
44508;SDS011;30214;52.246;14.408;2023-07-28T02:18:31;4.45;;;1.33;;
44508;SDS011;30214;52.246;14.408;2023-07-28T02:20:58;2.38;;;1.30;;
44508;SDS011;30214;52.246;14.408;2023-07-28T02:23:25;3.95;;;1.42;;
44508;SDS011;30214;52.246;14.408;2023-07-28T02:25:52;6.00;;;1.30;;
44508;SDS011;30214;52.246;14.408;2023-07-28T02:28:19;6.03;;;1.45;;
44508;SDS011;30214;52.246;14.408;2023-07-28T02:30:46;2.33;;;1.33;;
44508;SDS011;30214;52.246;14.408;2023-07-28T02:33:13;4.43;;;1.35;;
44508;SDS011;30214;52.246;14.408;2023-07-28T02:35:41;3.65;;;1.15;;
44508;SDS011;30214;52.246;14.408;2023-07-28T02:38:08;8.00;;;1.52;;
44508;SDS011;30214;52.246;14.408;2023-07-28T02:40:35;2.03;;;1.30;;
44508;SDS011;30214;52.246;14.408;2023-07-28T02:43:02;5.47;;;1.40;;
44508;SDS011;30214;52.246;14.408;2023-07-28T02:45:29;3.38;;;1.40;;
44508;SDS011;30214;52.246;14.408;2023-07-28T02:47:56;3.78;;;1.40;;
44508;SDS011;30214;52.246;14.408;2023-07-28T02:50:23;4.88;;;1.52;;
44508;SDS011;30214;52.246;14.408;2023-07-28T02:52:51;3.85;;;1.55;;
44508;SDS011;30214;52.246;14.408;2023-07-28T02:55:18;5.80;;;1.50;;
44508;SDS011;30214;52.246;14.408;2023-07-28T02:57:45;3.72;;;1.55;;
44508;SDS011;30214;52.246;14.408;2023-07-28T03:00:13;3.70;;;1.30;;
44508;SDS011;30214;52.246;14.408;2023-07-28T03:02:39;7.78;;;1.48;;
44508;SDS011;30214;52.246;14.408;2023-07-28T03:05:07;4.03;;;1.50;;
44508;SDS011;30214;52.246;14.408;2023-07-28T03:07:56;5.47;;;1.50;;
44508;SDS011;30214;52.246;14.408;2023-07-28T03:10:22;7.50;;;1.50;;
44508;SDS011;30214;52.246;14.408;2023-07-28T03:12:49;4.03;;;1.20;;
44508;SDS011;30214;52.246;14.408;2023-07-28T03:15:16;2.45;;;1.25;;
44508;SDS011;30214;52.246;14.408;2023-07-28T03:17:43;4.82;;;1.30;;
44508;SDS011;30214;52.246;14.408;2023-07-28T03:20:10;4.60;;;1.33;;
44508;SDS011;30214;52.246;14.408;2023-07-28T03:22:37;2.47;;;1.20;;
44508;SDS011;30214;52.246;14.408;2023-07-28T03:25:06;3.30;;;1.70;;
44508;SDS011;30214;52.246;14.408;2023-07-28T03:27:33;6.90;;;1.73;;
44508;SDS011;30214;52.246;14.408;2023-07-28T03:30:00;2.90;;;1.63;;
44508;SDS011;30214;52.246;14.408;2023-07-28T03:32:27;4.47;;;1.45;;
44508;SDS011;30214;52.246;14.408;2023-07-28T03:34:54;4.75;;;1.40;;
44508;SDS011;30214;52.246;14.408;2023-07-28T03:37:21;4.90;;;1.40;;
44508;SDS011;30214;52.246;14.408;2023-07-28T03:39:49;4.80;;;1.70;;
44508;SDS011;30214;52.246;14.408;2023-07-28T03:42:18;4.13;;;1.40;;
44508;SDS011;30214;52.246;14.408;2023-07-28T03:44:45;5.85;;;1.40;;
44508;SDS011;30214;52.246;14.408;2023-07-28T03:47:12;5.28;;;1.40;;
44508;SDS011;30214;52.246;14.408;2023-07-28T03:49:39;4.88;;;1.45;;
44508;SDS011;30214;52.246;14.408;2023-07-28T03:52:06;5.30;;;3.03;;
44508;SDS011;30214;52.246;14.408;2023-07-28T03:54:33;6.78;;;1.70;;
44508;SDS011;30214;52.246;14.408;2023-07-28T03:57:00;3.35;;;1.30;;
44508;SDS011;30214;52.246;14.408;2023-07-28T03:59:28;3.70;;;1.25;;
44508;SDS011;30214;52.246;14.408;2023-07-28T04:01:55;2.95;;;1.30;;
44508;SDS011;30214;52.246;14.408;2023-07-28T04:04:22;4.63;;;1.40;;
44508;SDS011;30214;52.246;14.408;2023-07-28T04:06:49;3.42;;;1.20;;
44508;SDS011;30214;52.246;14.408;2023-07-28T04:09:17;4.25;;;1.45;;
44508;SDS011;30214;52.246;14.408;2023-07-28T04:11:44;4.05;;;1.30;;
44508;SDS011;30214;52.246;14.408;2023-07-28T04:14:12;4.82;;;1.38;;
44508;SDS011;30214;52.246;14.408;2023-07-28T04:16:40;4.03;;;1.30;;
44508;SDS011;30214;52.246;14.408;2023-07-28T04:19:07;5.28;;;1.52;;
44508;SDS011;30214;52.246;14.408;2023-07-28T04:21:34;3.58;;;1.60;;
44508;SDS011;30214;52.246;14.408;2023-07-28T04:24:05;5.07;;;1.60;;
44508;SDS011;30214;52.246;14.408;2023-07-28T04:26:33;3.45;;;1.70;;
44508;SDS011;30214;52.246;14.408;2023-07-28T04:29:02;7.13;;;1.85;;
44508;SDS011;30214;52.246;14.408;2023-07-28T04:31:30;3.70;;;1.70;;
44508;SDS011;30214;52.246;14.408;2023-07-28T04:34:03;4.55;;;2.25;;
44508;SDS011;30214;52.246;14.408;2023-07-28T04:36:49;5.40;;;2.30;;
44508;SDS011;30214;52.246;14.408;2023-07-28T04:39:20;6.25;;;2.10;;
44508;SDS011;30214;52.246;14.408;2023-07-28T04:41:47;8.85;;;2.30;;
44508;SDS011;30214;52.246;14.408;2023-07-28T04:44:14;4.10;;;2.33;;
44508;SDS011;30214;52.246;14.408;2023-07-28T04:46:43;7.30;;;2.30;;
44508;SDS011;30214;52.246;14.408;2023-07-28T04:49:14;3.83;;;2.28;;
44508;SDS011;30214;52.246;14.408;2023-07-28T04:52:02;5.20;;;1.70;;
44508;SDS011;30214;52.246;14.408;2023-07-28T04:54:47;5.15;;;1.80;;
44508;SDS011;30214;52.246;14.408;2023-07-28T04:57:13;4.60;;;1.63;;
44508;SDS011;30214;52.246;14.408;2023-07-28T04:59:40;6.20;;;1.85;;
44508;SDS011;30214;52.246;14.408;2023-07-28T05:02:08;5.55;;;1.73;;
44508;SDS011;30214;52.246;14.408;2023-07-28T05:04:36;9.05;;;1.90;;
44508;SDS011;30214;52.246;14.408;2023-07-28T05:07:03;3.67;;;1.60;;
44508;SDS011;30214;52.246;14.408;2023-07-28T05:09:31;4.25;;;1.60;;
44508;SDS011;30214;52.246;14.408;2023-07-28T05:11:58;6.03;;;1.95;;
44508;SDS011;30214;52.246;14.408;2023-07-28T05:14:25;3.65;;;1.83;;
44508;SDS011;30214;52.246;14.408;2023-07-28T05:16:52;3.90;;;1.50;;
44508;SDS011;30214;52.246;14.408;2023-07-28T05:19:29;4.78;;;1.42;;
44508;SDS011;30214;52.246;14.408;2023-07-28T05:21:58;3.60;;;1.45;;
44508;SDS011;30214;52.246;14.408;2023-07-28T05:24:34;3.28;;;1.50;;
44508;SDS011;30214;52.246;14.408;2023-07-28T05:27:01;3.25;;;1.30;;
44508;SDS011;30214;52.246;14.408;2023-07-28T05:29:28;3.63;;;1.27;;
44508;SDS011;30214;52.246;14.408;2023-07-28T05:32:01;6.03;;;1.30;;
44508;SDS011;30214;52.246;14.408;2023-07-28T05:34:35;2.33;;;1.05;;
44508;SDS011;30214;52.246;14.408;2023-07-28T05:37:04;2.05;;;1.10;;
44508;SDS011;30214;52.246;14.408;2023-07-28T05:39:33;3.35;;;1.13;;
44508;SDS011;30214;52.246;14.408;2023-07-28T05:42:00;6.72;;;1.30;;
44508;SDS011;30214;52.246;14.408;2023-07-28T05:44:27;3.35;;;1.10;;
44508;SDS011;30214;52.246;14.408;2023-07-28T05:46:54;4.57;;;1.25;;
44508;SDS011;30214;52.246;14.408;2023-07-28T05:49:22;4.15;;;1.10;;
44508;SDS011;30214;52.246;14.408;2023-07-28T05:51:49;4.78;;;1.13;;
44508;SDS011;30214;52.246;14.408;2023-07-28T05:54:17;3.22;;;1.17;;
44508;SDS011;30214;52.246;14.408;2023-07-28T05:56:48;3.08;;;1.20;;
44508;SDS011;30214;52.246;14.408;2023-07-28T05:59:15;3.97;;;1.10;;
44508;SDS011;30214;52.246;14.408;2023-07-28T06:01:42;2.42;;;1.08;;
44508;SDS011;30214;52.246;14.408;2023-07-28T06:04:31;3.40;;;1.40;;
44508;SDS011;30214;52.246;14.408;2023-07-28T06:07:00;3.85;;;1.25;;
44508;SDS011;30214;52.246;14.408;2023-07-28T06:09:28;3.83;;;1.10;;
44508;SDS011;30214;52.246;14.408;2023-07-28T06:11:55;1.80;;;1.10;;
44508;SDS011;30214;52.246;14.408;2023-07-28T06:14:25;4.78;;;1.27;;
44508;SDS011;30214;52.246;14.408;2023-07-28T06:16:52;5.22;;;1.10;;
44508;SDS011;30214;52.246;14.408;2023-07-28T06:19:20;2.25;;;1.13;;
44508;SDS011;30214;52.246;14.408;2023-07-28T06:21:49;2.13;;;1.05;;
44508;SDS011;30214;52.246;14.408;2023-07-28T06:24:17;3.80;;;1.20;;
44508;SDS011;30214;52.246;14.408;2023-07-28T06:26:45;2.10;;;1.08;;
44508;SDS011;30214;52.246;14.408;2023-07-28T06:29:12;3.78;;;1.42;;
44508;SDS011;30214;52.246;14.408;2023-07-28T06:31:39;2.05;;;1.17;;
44508;SDS011;30214;52.246;14.408;2023-07-28T06:34:06;3.28;;;1.20;;
44508;SDS011;30214;52.246;14.408;2023-07-28T06:36:33;2.53;;;1.30;;
44508;SDS011;30214;52.246;14.408;2023-07-28T06:39:00;4.93;;;1.60;;
44508;SDS011;30214;52.246;14.408;2023-07-28T06:41:27;3.13;;;1.40;;
44508;SDS011;30214;52.246;14.408;2023-07-28T06:44:00;2.17;;;1.48;;
44508;SDS011;30214;52.246;14.408;2023-07-28T06:46:28;3.08;;;1.30;;
44508;SDS011;30214;52.246;14.408;2023-07-28T06:48:55;2.70;;;1.35;;
44508;SDS011;30214;52.246;14.408;2023-07-28T06:51:22;4.18;;;1.40;;
44508;SDS011;30214;52.246;14.408;2023-07-28T06:53:49;2.83;;;1.38;;
44508;SDS011;30214;52.246;14.408;2023-07-28T06:56:16;2.67;;;1.30;;
44508;SDS011;30214;52.246;14.408;2023-07-28T06:58:43;2.92;;;1.25;;
44508;SDS011;30214;52.246;14.408;2023-07-28T07:01:11;4.72;;;1.50;;
44508;SDS011;30214;52.246;14.408;2023-07-28T07:03:38;5.32;;;1.70;;
44508;SDS011;30214;52.246;14.408;2023-07-28T07:06:05;6.13;;;1.38;;
44508;SDS011;30214;52.246;14.408;2023-07-28T07:08:32;3.80;;;1.50;;
44508;SDS011;30214;52.246;14.408;2023-07-28T07:10:59;4.05;;;1.60;;
44508;SDS011;30214;52.246;14.408;2023-07-28T07:13:26;3.88;;;1.45;;
44508;SDS011;30214;52.246;14.408;2023-07-28T07:15:53;3.10;;;1.40;;
44508;SDS011;30214;52.246;14.408;2023-07-28T07:18:21;3.20;;;1.40;;
44508;SDS011;30214;52.246;14.408;2023-07-28T07:20:48;3.63;;;1.40;;
44508;SDS011;30214;52.246;14.408;2023-07-28T07:23:15;4.20;;;1.45;;
44508;SDS011;30214;52.246;14.408;2023-07-28T07:25:42;4.68;;;1.50;;
44508;SDS011;30214;52.246;14.408;2023-07-28T07:28:09;3.75;;;1.67;;
44508;SDS011;30214;52.246;14.408;2023-07-28T07:30:36;4.32;;;1.20;;
44508;SDS011;30214;52.246;14.408;2023-07-28T07:33:02;2.47;;;1.20;;
44508;SDS011;30214;52.246;14.408;2023-07-28T07:35:35;4.65;;;1.15;;
44508;SDS011;30214;52.246;14.408;2023-07-28T07:38:02;4.63;;;1.23;;
44508;SDS011;30214;52.246;14.408;2023-07-28T07:40:33;3.65;;;1.13;;
44508;SDS011;30214;52.246;14.408;2023-07-28T07:43:00;3.00;;;1.13;;
44508;SDS011;30214;52.246;14.408;2023-07-28T07:45:28;2.42;;;1.17;;
44508;SDS011;30214;52.246;14.408;2023-07-28T07:47:55;2.33;;;1.00;;
44508;SDS011;30214;52.246;14.408;2023-07-28T07:50:23;2.45;;;1.10;;
44508;SDS011;30214;52.246;14.408;2023-07-28T07:52:51;2.95;;;1.15;;
44508;SDS011;30214;52.246;14.408;2023-07-28T07:55:18;3.78;;;1.58;;
44508;SDS011;30214;52.246;14.408;2023-07-28T07:57:44;2.25;;;1.30;;
44508;SDS011;30214;52.246;14.408;2023-07-28T08:00:12;2.20;;;1.08;;
44508;SDS011;30214;52.246;14.408;2023-07-28T08:02:40;2.72;;;1.33;;
44508;SDS011;30214;52.246;14.408;2023-07-28T08:05:07;2.17;;;1.30;;
44508;SDS011;30214;52.246;14.408;2023-07-28T08:07:35;5.53;;;1.23;;
44508;SDS011;30214;52.246;14.408;2023-07-28T08:10:03;2.65;;;1.30;;
44508;SDS011;30214;52.246;14.408;2023-07-28T08:12:30;1.90;;;1.17;;
44508;SDS011;30214;52.246;14.408;2023-07-28T08:14:57;2.00;;;1.20;;
44508;SDS011;30214;52.246;14.408;2023-07-28T08:17:24;2.88;;;1.45;;
44508;SDS011;30214;52.246;14.408;2023-07-28T08:19:51;3.45;;;1.58;;
44508;SDS011;30214;52.246;14.408;2023-07-28T08:22:18;1.95;;;1.30;;
44508;SDS011;30214;52.246;14.408;2023-07-28T08:24:45;2.35;;;1.40;;
44508;SDS011;30214;52.246;14.408;2023-07-28T08:27:14;3.47;;;1.50;;
44508;SDS011;30214;52.246;14.408;2023-07-28T08:29:41;5.35;;;1.40;;
44508;SDS011;30214;52.246;14.408;2023-07-28T08:32:08;3.05;;;1.50;;
44508;SDS011;30214;52.246;14.408;2023-07-28T08:34:35;6.00;;;1.48;;
44508;SDS011;30214;52.246;14.408;2023-07-28T08:37:02;3.05;;;1.10;;
44508;SDS011;30214;52.246;14.408;2023-07-28T08:39:28;4.07;;;1.48;;
44508;SDS011;30214;52.246;14.408;2023-07-28T08:41:58;5.30;;;1.40;;
44508;SDS011;30214;52.246;14.408;2023-07-28T08:44:28;2.72;;;1.40;;
44508;SDS011;30214;52.246;14.408;2023-07-28T08:46:57;4.70;;;1.60;;
44508;SDS011;30214;52.246;14.408;2023-07-28T08:49:24;3.95;;;1.48;;
44508;SDS011;30214;52.246;14.408;2023-07-28T08:51:52;3.17;;;1.27;;
44508;SDS011;30214;52.246;14.408;2023-07-28T08:54:23;3.13;;;1.60;;
44508;SDS011;30214;52.246;14.408;2023-07-28T08:56:50;2.47;;;1.20;;
44508;SDS011;30214;52.246;14.408;2023-07-28T08:59:20;3.42;;;1.10;;
44508;SDS011;30214;52.246;14.408;2023-07-28T09:01:50;3.45;;;1.48;;
44508;SDS011;30214;52.246;14.408;2023-07-28T09:04:17;6.80;;;1.30;;
44508;SDS011;30214;52.246;14.408;2023-07-28T09:06:45;3.42;;;1.08;;
44508;SDS011;30214;52.246;14.408;2023-07-28T09:09:12;4.57;;;1.42;;
44508;SDS011;30214;52.246;14.408;2023-07-28T09:11:46;3.25;;;1.40;;
44508;SDS011;30214;52.246;14.408;2023-07-28T09:14:15;4.40;;;1.30;;
44508;SDS011;30214;52.246;14.408;2023-07-28T09:16:44;2.78;;;1.13;;
44508;SDS011;30214;52.246;14.408;2023-07-28T09:19:13;3.00;;;1.30;;
44508;SDS011;30214;52.246;14.408;2023-07-28T09:21:41;3.22;;;1.20;;
44508;SDS011;30214;52.246;14.408;2023-07-28T09:24:10;4.75;;;1.02;;
44508;SDS011;30214;52.246;14.408;2023-07-28T09:26:38;3.63;;;1.20;;
44508;SDS011;30214;52.246;14.408;2023-07-28T09:29:15;2.70;;;1.65;;
44508;SDS011;30214;52.246;14.408;2023-07-28T09:31:43;14.98;;;1.50;;
44508;SDS011;30214;52.246;14.408;2023-07-28T09:34:11;3.97;;;1.15;;
44508;SDS011;30214;52.246;14.408;2023-07-28T09:36:48;2.63;;;1.20;;
44508;SDS011;30214;52.246;14.408;2023-07-28T09:39:15;3.10;;;1.15;;
44508;SDS011;30214;52.246;14.408;2023-07-28T09:41:44;2.40;;;1.30;;
44508;SDS011;30214;52.246;14.408;2023-07-28T09:44:12;2.92;;;1.13;;
44508;SDS011;30214;52.246;14.408;2023-07-28T09:46:44;3.45;;;1.30;;
44508;SDS011;30214;52.246;14.408;2023-07-28T09:49:19;4.35;;;0.95;;
44508;SDS011;30214;52.246;14.408;2023-07-28T09:51:48;3.17;;;1.20;;
44508;SDS011;30214;52.246;14.408;2023-07-28T09:54:20;4.03;;;1.00;;
44508;SDS011;30214;52.246;14.408;2023-07-28T09:56:53;2.90;;;1.10;;
44508;SDS011;30214;52.246;14.408;2023-07-28T09:59:24;3.35;;;1.08;;
44508;SDS011;30214;52.246;14.408;2023-07-28T10:01:55;3.42;;;1.00;;
44508;SDS011;30214;52.246;14.408;2023-07-28T10:04:25;1.73;;;0.93;;
44508;SDS011;30214;52.246;14.408;2023-07-28T10:06:52;6.85;;;1.10;;
44508;SDS011;30214;52.246;14.408;2023-07-28T10:09:22;2.60;;;1.08;;
44508;SDS011;30214;52.246;14.408;2023-07-28T10:11:50;4.72;;;1.00;;
44508;SDS011;30214;52.246;14.408;2023-07-28T10:14:25;2.30;;;0.90;;
44508;SDS011;30214;52.246;14.408;2023-07-28T10:16:53;3.58;;;1.00;;
44508;SDS011;30214;52.246;14.408;2023-07-28T10:19:20;1.17;;;0.80;;
44508;SDS011;30214;52.246;14.408;2023-07-28T10:21:49;1.67;;;1.00;;
44508;SDS011;30214;52.246;14.408;2023-07-28T10:24:15;1.77;;;0.93;;
44508;SDS011;30214;52.246;14.408;2023-07-28T10:26:43;2.67;;;0.85;;
44508;SDS011;30214;52.246;14.408;2023-07-28T10:29:11;1.75;;;0.85;;
44508;SDS011;30214;52.246;14.408;2023-07-28T10:31:50;2.42;;;0.85;;
44508;SDS011;30214;52.246;14.408;2023-07-28T10:34:17;1.60;;;0.90;;
44508;SDS011;30214;52.246;14.408;2023-07-28T10:36:45;2.47;;;0.90;;
44508;SDS011;30214;52.246;14.408;2023-07-28T10:39:14;3.38;;;0.90;;
44508;SDS011;30214;52.246;14.408;2023-07-28T10:42:02;1.40;;;1.00;;
44508;SDS011;30214;52.246;14.408;2023-07-28T10:44:31;3.55;;;0.90;;
44508;SDS011;30214;52.246;14.408;2023-07-28T10:47:00;3.47;;;0.80;;
44508;SDS011;30214;52.246;14.408;2023-07-28T10:49:27;1.60;;;0.98;;
44508;SDS011;30214;52.246;14.408;2023-07-28T10:51:55;8.98;;;1.65;;
44508;SDS011;30214;52.246;14.408;2023-07-28T10:54:23;5.28;;;1.85;;
44508;SDS011;30214;52.246;14.408;2023-07-28T10:56:50;3.67;;;1.38;;
44508;SDS011;30214;52.246;14.408;2023-07-28T10:59:17;3.83;;;1.40;;
44508;SDS011;30214;52.246;14.408;2023-07-28T11:01:44;4.45;;;1.20;;
44508;SDS011;30214;52.246;14.408;2023-07-28T11:04:13;2.10;;;1.40;;
44508;SDS011;30214;52.246;14.408;2023-07-28T11:06:42;4.00;;;1.42;;
44508;SDS011;30214;52.246;14.408;2023-07-28T11:09:10;2.38;;;1.20;;
44508;SDS011;30214;52.246;14.408;2023-07-28T11:11:42;4.18;;;1.40;;
44508;SDS011;30214;52.246;14.408;2023-07-28T11:14:10;2.72;;;1.42;;
44508;SDS011;30214;52.246;14.408;2023-07-28T11:16:38;3.13;;;1.45;;
44508;SDS011;30214;52.246;14.408;2023-07-28T11:19:08;2.33;;;1.40;;
44508;SDS011;30214;52.246;14.408;2023-07-28T11:21:36;3.20;;;1.25;;
44508;SDS011;30214;52.246;14.408;2023-07-28T11:24:06;4.63;;;1.15;;
44508;SDS011;30214;52.246;14.408;2023-07-28T11:26:34;3.10;;;1.13;;
44508;SDS011;30214;52.246;14.408;2023-07-28T11:29:04;1.95;;;1.10;;
44508;SDS011;30214;52.246;14.408;2023-07-28T11:31:32;3.00;;;1.35;;
44508;SDS011;30214;52.246;14.408;2023-07-28T11:34:00;2.70;;;1.20;;
44508;SDS011;30214;52.246;14.408;2023-07-28T11:36:28;3.13;;;1.30;;
44508;SDS011;30214;52.246;14.408;2023-07-28T11:38:59;2.00;;;1.20;;
44508;SDS011;30214;52.246;14.408;2023-07-28T11:41:32;3.20;;;1.10;;
44508;SDS011;30214;52.246;14.408;2023-07-28T11:44:00;1.70;;;1.20;;
44508;SDS011;30214;52.246;14.408;2023-07-28T11:46:35;1.58;;;0.98;;
44508;SDS011;30214;52.246;14.408;2023-07-28T11:49:08;3.35;;;1.10;;
44508;SDS011;30214;52.246;14.408;2023-07-28T11:51:37;2.10;;;1.13;;
44508;SDS011;30214;52.246;14.408;2023-07-28T11:54:10;3.97;;;0.93;;
44508;SDS011;30214;52.246;14.408;2023-07-28T11:56:39;1.73;;;1.10;;
44508;SDS011;30214;52.246;14.408;2023-07-28T11:59:07;1.55;;;1.00;;
44508;SDS011;30214;52.246;14.408;2023-07-28T12:01:36;1.90;;;1.02;;
44508;SDS011;30214;52.246;14.408;2023-07-28T12:04:22;2.30;;;1.10;;
44508;SDS011;30214;52.246;14.408;2023-07-28T12:07:00;1.88;;;1.20;;
44508;SDS011;30214;52.246;14.408;2023-07-28T12:09:33;2.33;;;1.10;;
44508;SDS011;30214;52.246;14.408;2023-07-28T12:12:17;2.13;;;1.10;;
44508;SDS011;30214;52.246;14.408;2023-07-28T12:14:49;1.50;;;0.90;;
44508;SDS011;30214;52.246;14.408;2023-07-28T12:17:19;1.65;;;1.00;;
44508;SDS011;30214;52.246;14.408;2023-07-28T12:19:55;1.80;;;1.20;;
44508;SDS011;30214;52.246;14.408;2023-07-28T12:22:26;1.88;;;0.93;;
44508;SDS011;30214;52.246;14.408;2023-07-28T12:24:54;2.15;;;1.10;;
44508;SDS011;30214;52.246;14.408;2023-07-28T12:27:22;2.95;;;1.08;;
44508;SDS011;30214;52.246;14.408;2023-07-28T12:29:50;3.47;;;1.00;;
44508;SDS011;30214;52.246;14.408;2023-07-28T12:32:21;3.50;;;1.00;;
44508;SDS011;30214;52.246;14.408;2023-07-28T12:34:48;2.13;;;1.10;;
44508;SDS011;30214;52.246;14.408;2023-07-28T12:37:16;3.03;;;0.90;;
44508;SDS011;30214;52.246;14.408;2023-07-28T12:39:44;3.47;;;1.15;;
44508;SDS011;30214;52.246;14.408;2023-07-28T12:42:12;1.92;;;1.02;;
44508;SDS011;30214;52.246;14.408;2023-07-28T12:44:41;2.50;;;1.10;;
44508;SDS011;30214;52.246;14.408;2023-07-28T12:47:08;1.70;;;1.00;;
44508;SDS011;30214;52.246;14.408;2023-07-28T12:49:37;8.30;;;2.08;;
44508;SDS011;30214;52.246;14.408;2023-07-28T12:52:06;5.32;;;1.48;;
44508;SDS011;30214;52.246;14.408;2023-07-28T12:54:34;4.15;;;1.00;;
44508;SDS011;30214;52.246;14.408;2023-07-28T12:57:02;5.60;;;1.10;;
44508;SDS011;30214;52.246;14.408;2023-07-28T12:59:29;5.18;;;1.30;;
44508;SDS011;30214;52.246;14.408;2023-07-28T13:01:56;4.07;;;1.17;;
44508;SDS011;30214;52.246;14.408;2023-07-28T13:04:23;2.70;;;1.20;;
44508;SDS011;30214;52.246;14.408;2023-07-28T13:06:51;5.40;;;1.20;;
44508;SDS011;30214;52.246;14.408;2023-07-28T13:09:18;3.42;;;1.33;;
44508;SDS011;30214;52.246;14.408;2023-07-28T13:11:45;4.05;;;1.33;;
44508;SDS011;30214;52.246;14.408;2023-07-28T13:14:12;2.65;;;1.08;;
44508;SDS011;30214;52.246;14.408;2023-07-28T13:16:39;2.10;;;1.08;;
44508;SDS011;30214;52.246;14.408;2023-07-28T13:19:06;3.38;;;1.02;;
44508;SDS011;30214;52.246;14.408;2023-07-28T13:21:33;2.47;;;1.10;;
44508;SDS011;30214;52.246;14.408;2023-07-28T13:24:01;3.63;;;1.20;;
44508;SDS011;30214;52.246;14.408;2023-07-28T13:26:29;3.60;;;1.30;;
44508;SDS011;30214;52.246;14.408;2023-07-28T13:28:56;2.65;;;1.40;;
44508;SDS011;30214;52.246;14.408;2023-07-28T13:31:24;3.55;;;1.27;;
44508;SDS011;30214;52.246;14.408;2023-07-28T13:33:51;1.77;;;1.20;;
44508;SDS011;30214;52.246;14.408;2023-07-28T13:36:17;4.22;;;1.40;;
44508;SDS011;30214;52.246;14.408;2023-07-28T13:38:44;2.55;;;1.20;;
44508;SDS011;30214;52.246;14.408;2023-07-28T13:41:13;4.47;;;1.40;;
44508;SDS011;30214;52.246;14.408;2023-07-28T13:43:40;6.38;;;1.40;;
44508;SDS011;30214;52.246;14.408;2023-07-28T13:46:07;2.58;;;1.33;;
44508;SDS011;30214;52.246;14.408;2023-07-28T13:48:34;2.30;;;1.30;;
44508;SDS011;30214;52.246;14.408;2023-07-28T13:51:01;3.75;;;1.33;;
44508;SDS011;30214;52.246;14.408;2023-07-28T13:53:28;2.30;;;1.30;;
44508;SDS011;30214;52.246;14.408;2023-07-28T13:55:55;1.80;;;1.15;;
44508;SDS011;30214;52.246;14.408;2023-07-28T13:58:23;2.92;;;1.33;;
44508;SDS011;30214;52.246;14.408;2023-07-28T14:00:51;5.68;;;1.42;;
44508;SDS011;30214;52.246;14.408;2023-07-28T14:03:18;3.17;;;1.60;;
44508;SDS011;30214;52.246;14.408;2023-07-28T14:08:56;3.55;;;1.45;;
44508;SDS011;30214;52.246;14.408;2023-07-28T14:11:23;4.05;;;1.50;;
44508;SDS011;30214;52.246;14.408;2023-07-28T14:13:51;2.13;;;1.40;;
44508;SDS011;30214;52.246;14.408;2023-07-28T14:16:18;3.55;;;1.30;;
44508;SDS011;30214;52.246;14.408;2023-07-28T14:18:45;3.65;;;1.48;;
44508;SDS011;30214;52.246;14.408;2023-07-28T14:21:15;5.55;;;1.58;;
44508;SDS011;30214;52.246;14.408;2023-07-28T14:23:42;7.35;;;1.55;;
44508;SDS011;30214;52.246;14.408;2023-07-28T14:26:09;4.47;;;1.42;;
44508;SDS011;30214;52.246;14.408;2023-07-28T14:28:36;2.65;;;1.40;;
44508;SDS011;30214;52.246;14.408;2023-07-28T14:31:05;2.65;;;1.75;;
44508;SDS011;30214;52.246;14.408;2023-07-28T14:33:32;3.40;;;1.38;;
44508;SDS011;30214;52.246;14.408;2023-07-28T14:35:59;5.65;;;2.20;;
44508;SDS011;30214;52.246;14.408;2023-07-28T14:38:26;4.45;;;1.40;;
44508;SDS011;30214;52.246;14.408;2023-07-28T14:40:52;2.55;;;1.50;;
44508;SDS011;30214;52.246;14.408;2023-07-28T14:43:19;2.25;;;1.42;;